sensor_id;sensor_type;location;lat;lon;timestamp;P1;durP1;ratioP1;P2;durP2;ratioP2
5995;SDS011;3026;53.612;7.278;2023-03-01T00:01:39;49.07;;;16.10;;
5995;SDS011;3026;53.612;7.278;2023-03-01T00:04:06;28.10;;;15.70;;
5995;SDS011;3026;53.612;7.278;2023-03-01T00:06:33;23.83;;;13.43;;
5995;SDS011;3026;53.612;7.278;2023-03-01T00:09:02;24.00;;;13.83;;
5995;SDS011;3026;53.612;7.278;2023-03-01T00:11:30;22.17;;;12.40;;
5995;SDS011;3026;53.612;7.278;2023-03-01T00:13:58;26.83;;;13.63;;
5995;SDS011;3026;53.612;7.278;2023-03-01T00:16:28;28.27;;;13.20;;
5995;SDS011;3026;53.612;7.278;2023-03-01T00:18:56;26.33;;;13.30;;
5995;SDS011;3026;53.612;7.278;2023-03-01T00:21:24;66.13;;;15.63;;
5995;SDS011;3026;53.612;7.278;2023-03-01T00:23:52;39.50;;;12.73;;
5995;SDS011;3026;53.612;7.278;2023-03-01T00:26:21;49.17;;;12.70;;
5995;SDS011;3026;53.612;7.278;2023-03-01T00:28:49;33.17;;;13.27;;
5995;SDS011;3026;53.612;7.278;2023-03-01T00:31:17;20.20;;;12.33;;
5995;SDS011;3026;53.612;7.278;2023-03-01T00:33:45;28.97;;;12.73;;
5995;SDS011;3026;53.612;7.278;2023-03-01T00:36:13;23.03;;;11.53;;
5995;SDS011;3026;53.612;7.278;2023-03-01T00:38:42;32.23;;;12.83;;
5995;SDS011;3026;53.612;7.278;2023-03-01T00:41:10;57.20;;;13.97;;
5995;SDS011;3026;53.612;7.278;2023-03-01T00:43:40;29.13;;;12.53;;
5995;SDS011;3026;53.612;7.278;2023-03-01T00:46:08;45.13;;;12.47;;
5995;SDS011;3026;53.612;7.278;2023-03-01T00:48:37;36.93;;;13.10;;
5995;SDS011;3026;53.612;7.278;2023-03-01T00:51:04;25.77;;;13.13;;
5995;SDS011;3026;53.612;7.278;2023-03-01T00:53:32;44.93;;;13.10;;
5995;SDS011;3026;53.612;7.278;2023-03-01T00:55:59;24.63;;;11.50;;
5995;SDS011;3026;53.612;7.278;2023-03-01T00:58:26;36.10;;;12.37;;
5995;SDS011;3026;53.612;7.278;2023-03-01T01:00:55;19.57;;;11.77;;
5995;SDS011;3026;53.612;7.278;2023-03-01T01:03:22;22.13;;;11.97;;
5995;SDS011;3026;53.612;7.278;2023-03-01T01:05:50;38.43;;;11.43;;
5995;SDS011;3026;53.612;7.278;2023-03-01T01:08:16;22.07;;;11.63;;
5995;SDS011;3026;53.612;7.278;2023-03-01T01:10:43;20.63;;;11.83;;
5995;SDS011;3026;53.612;7.278;2023-03-01T01:13:10;33.57;;;12.47;;
5995;SDS011;3026;53.612;7.278;2023-03-01T01:15:37;38.57;;;11.97;;
5995;SDS011;3026;53.612;7.278;2023-03-01T01:18:06;24.93;;;12.20;;
5995;SDS011;3026;53.612;7.278;2023-03-01T01:20:35;19.73;;;12.43;;
5995;SDS011;3026;53.612;7.278;2023-03-01T01:23:02;72.07;;;13.23;;
5995;SDS011;3026;53.612;7.278;2023-03-01T01:25:33;44.43;;;12.73;;
5995;SDS011;3026;53.612;7.278;2023-03-01T01:28:00;33.80;;;11.47;;
5995;SDS011;3026;53.612;7.278;2023-03-01T01:30:27;24.63;;;11.00;;
5995;SDS011;3026;53.612;7.278;2023-03-01T01:32:54;48.40;;;13.03;;
5995;SDS011;3026;53.612;7.278;2023-03-01T01:35:22;20.43;;;12.20;;
5995;SDS011;3026;53.612;7.278;2023-03-01T01:37:49;28.33;;;10.97;;
5995;SDS011;3026;53.612;7.278;2023-03-01T01:40:16;22.87;;;11.43;;
5995;SDS011;3026;53.612;7.278;2023-03-01T01:42:43;32.10;;;12.67;;
5995;SDS011;3026;53.612;7.278;2023-03-01T01:45:27;18.60;;;10.93;;
5995;SDS011;3026;53.612;7.278;2023-03-01T01:47:58;21.63;;;11.20;;
5995;SDS011;3026;53.612;7.278;2023-03-01T01:50:30;19.93;;;10.73;;
5995;SDS011;3026;53.612;7.278;2023-03-01T01:53:04;18.20;;;10.63;;
5995;SDS011;3026;53.612;7.278;2023-03-01T01:55:35;19.43;;;10.10;;
5995;SDS011;3026;53.612;7.278;2023-03-01T01:58:07;23.80;;;10.93;;
5995;SDS011;3026;53.612;7.278;2023-03-01T02:00:37;16.80;;;10.57;;
5995;SDS011;3026;53.612;7.278;2023-03-01T02:03:07;20.53;;;10.70;;
5995;SDS011;3026;53.612;7.278;2023-03-01T02:05:38;20.97;;;10.70;;
5995;SDS011;3026;53.612;7.278;2023-03-01T02:08:10;19.90;;;10.70;;
5995;SDS011;3026;53.612;7.278;2023-03-01T02:10:38;19.53;;;9.87;;
5995;SDS011;3026;53.612;7.278;2023-03-01T02:13:07;16.53;;;8.90;;
5995;SDS011;3026;53.612;7.278;2023-03-01T02:15:34;15.73;;;9.43;;
5995;SDS011;3026;53.612;7.278;2023-03-01T02:18:04;13.60;;;8.40;;
5995;SDS011;3026;53.612;7.278;2023-03-01T02:20:33;15.20;;;8.73;;
5995;SDS011;3026;53.612;7.278;2023-03-01T02:23:08;14.80;;;8.67;;
5995;SDS011;3026;53.612;7.278;2023-03-01T02:25:38;17.47;;;10.50;;
5995;SDS011;3026;53.612;7.278;2023-03-01T02:28:20;24.57;;;9.93;;
5995;SDS011;3026;53.612;7.278;2023-03-01T02:30:49;22.07;;;10.90;;
5995;SDS011;3026;53.612;7.278;2023-03-01T02:33:35;15.40;;;9.93;;
5995;SDS011;3026;53.612;7.278;2023-03-01T02:36:04;15.77;;;9.57;;
5995;SDS011;3026;53.612;7.278;2023-03-01T02:38:34;17.57;;;10.47;;
5995;SDS011;3026;53.612;7.278;2023-03-01T02:41:02;17.43;;;9.17;;
5995;SDS011;3026;53.612;7.278;2023-03-01T02:43:32;18.40;;;9.47;;
5995;SDS011;3026;53.612;7.278;2023-03-01T02:46:04;27.20;;;9.83;;
5995;SDS011;3026;53.612;7.278;2023-03-01T02:48:39;18.87;;;10.00;;
5995;SDS011;3026;53.612;7.278;2023-03-01T02:51:10;17.53;;;9.40;;
5995;SDS011;3026;53.612;7.278;2023-03-01T02:53:47;14.80;;;8.60;;
5995;SDS011;3026;53.612;7.278;2023-03-01T02:56:20;14.97;;;9.13;;
5995;SDS011;3026;53.612;7.278;2023-03-01T02:58:48;16.37;;;8.47;;
5995;SDS011;3026;53.612;7.278;2023-03-01T03:01:16;13.27;;;8.23;;
5995;SDS011;3026;53.612;7.278;2023-03-01T03:03:43;12.33;;;8.40;;
5995;SDS011;3026;53.612;7.278;2023-03-01T03:06:10;13.67;;;8.17;;
5995;SDS011;3026;53.612;7.278;2023-03-01T03:08:38;14.17;;;7.97;;
5995;SDS011;3026;53.612;7.278;2023-03-01T03:11:04;14.80;;;7.67;;
5995;SDS011;3026;53.612;7.278;2023-03-01T03:13:31;16.10;;;8.90;;
5995;SDS011;3026;53.612;7.278;2023-03-01T03:16:00;22.60;;;9.33;;
5995;SDS011;3026;53.612;7.278;2023-03-01T03:18:28;15.63;;;8.67;;
5995;SDS011;3026;53.612;7.278;2023-03-01T03:20:56;15.97;;;8.93;;
5995;SDS011;3026;53.612;7.278;2023-03-01T03:23:23;27.77;;;9.03;;
5995;SDS011;3026;53.612;7.278;2023-03-01T03:25:50;15.90;;;8.47;;
5995;SDS011;3026;53.612;7.278;2023-03-01T03:28:17;18.23;;;9.73;;
5995;SDS011;3026;53.612;7.278;2023-03-01T03:30:44;17.73;;;9.37;;
5995;SDS011;3026;53.612;7.278;2023-03-01T03:33:13;42.13;;;10.50;;
5995;SDS011;3026;53.612;7.278;2023-03-01T03:35:41;61.80;;;11.03;;
5995;SDS011;3026;53.612;7.278;2023-03-01T03:38:10;32.90;;;10.07;;
5995;SDS011;3026;53.612;7.278;2023-03-01T03:40:43;47.63;;;11.57;;
5995;SDS011;3026;53.612;7.278;2023-03-01T03:43:11;15.60;;;8.63;;
5995;SDS011;3026;53.612;7.278;2023-03-01T03:45:39;29.50;;;9.10;;
5995;SDS011;3026;53.612;7.278;2023-03-01T03:48:07;17.17;;;7.13;;
5995;SDS011;3026;53.612;7.278;2023-03-01T03:50:37;13.67;;;7.67;;
5995;SDS011;3026;53.612;7.278;2023-03-01T03:53:05;14.93;;;6.97;;
5995;SDS011;3026;53.612;7.278;2023-03-01T03:55:34;29.77;;;8.10;;
5995;SDS011;3026;53.612;7.278;2023-03-01T03:58:04;17.13;;;7.57;;
5995;SDS011;3026;53.612;7.278;2023-03-01T04:00:33;12.87;;;6.80;;
5995;SDS011;3026;53.612;7.278;2023-03-01T04:03:02;14.40;;;7.17;;
5995;SDS011;3026;53.612;7.278;2023-03-01T04:05:31;27.73;;;7.13;;
5995;SDS011;3026;53.612;7.278;2023-03-01T04:08:00;12.70;;;7.13;;
5995;SDS011;3026;53.612;7.278;2023-03-01T04:10:33;18.23;;;7.73;;
5995;SDS011;3026;53.612;7.278;2023-03-01T04:13:00;13.83;;;6.63;;
5995;SDS011;3026;53.612;7.278;2023-03-01T04:15:27;12.93;;;6.70;;
5995;SDS011;3026;53.612;7.278;2023-03-01T04:17:55;15.87;;;6.80;;
5995;SDS011;3026;53.612;7.278;2023-03-01T04:20:22;10.93;;;6.20;;
5995;SDS011;3026;53.612;7.278;2023-03-01T04:22:51;33.40;;;7.03;;
5995;SDS011;3026;53.612;7.278;2023-03-01T04:25:20;16.57;;;7.27;;
5995;SDS011;3026;53.612;7.278;2023-03-01T04:27:47;13.17;;;6.73;;
5995;SDS011;3026;53.612;7.278;2023-03-01T04:30:14;11.30;;;6.63;;
5995;SDS011;3026;53.612;7.278;2023-03-01T04:32:41;14.10;;;7.00;;
5995;SDS011;3026;53.612;7.278;2023-03-01T04:35:08;10.37;;;6.43;;
5995;SDS011;3026;53.612;7.278;2023-03-01T04:37:35;10.83;;;6.07;;
5995;SDS011;3026;53.612;7.278;2023-03-01T04:40:02;12.73;;;6.63;;
5995;SDS011;3026;53.612;7.278;2023-03-01T04:42:39;12.37;;;6.93;;
5995;SDS011;3026;53.612;7.278;2023-03-01T04:45:07;11.93;;;6.90;;
5995;SDS011;3026;53.612;7.278;2023-03-01T04:47:38;12.00;;;7.10;;
5995;SDS011;3026;53.612;7.278;2023-03-01T04:50:07;11.73;;;6.97;;
5995;SDS011;3026;53.612;7.278;2023-03-01T04:52:34;15.60;;;8.20;;
5995;SDS011;3026;53.612;7.278;2023-03-01T04:55:04;10.33;;;6.13;;
5995;SDS011;3026;53.612;7.278;2023-03-01T04:57:32;14.33;;;6.90;;
5995;SDS011;3026;53.612;7.278;2023-03-01T05:00:00;12.17;;;7.10;;
5995;SDS011;3026;53.612;7.278;2023-03-01T05:02:45;11.87;;;6.77;;
5995;SDS011;3026;53.612;7.278;2023-03-01T05:05:18;11.70;;;7.00;;
5995;SDS011;3026;53.612;7.278;2023-03-01T05:07:50;11.07;;;6.90;;
5995;SDS011;3026;53.612;7.278;2023-03-01T05:10:17;12.57;;;6.80;;
5995;SDS011;3026;53.612;7.278;2023-03-01T05:12:44;12.53;;;7.27;;
5995;SDS011;3026;53.612;7.278;2023-03-01T05:15:13;14.30;;;7.63;;
5995;SDS011;3026;53.612;7.278;2023-03-01T05:17:40;12.17;;;6.47;;
5995;SDS011;3026;53.612;7.278;2023-03-01T05:20:07;10.40;;;6.67;;
5995;SDS011;3026;53.612;7.278;2023-03-01T05:22:35;10.37;;;6.23;;
5995;SDS011;3026;53.612;7.278;2023-03-01T05:25:03;13.13;;;7.17;;
5995;SDS011;3026;53.612;7.278;2023-03-01T05:27:30;11.70;;;6.87;;
5995;SDS011;3026;53.612;7.278;2023-03-01T05:29:57;14.47;;;7.40;;
5995;SDS011;3026;53.612;7.278;2023-03-01T05:32:28;11.27;;;7.00;;
5995;SDS011;3026;53.612;7.278;2023-03-01T05:34:57;10.50;;;6.67;;
5995;SDS011;3026;53.612;7.278;2023-03-01T05:37:24;11.70;;;7.27;;
5995;SDS011;3026;53.612;7.278;2023-03-01T05:39:50;9.67;;;5.60;;
5995;SDS011;3026;53.612;7.278;2023-03-01T05:42:17;12.60;;;7.40;;
5995;SDS011;3026;53.612;7.278;2023-03-01T05:44:44;11.60;;;6.90;;
5995;SDS011;3026;53.612;7.278;2023-03-01T05:47:11;12.57;;;7.10;;
5995;SDS011;3026;53.612;7.278;2023-03-01T05:49:39;11.60;;;7.53;;
5995;SDS011;3026;53.612;7.278;2023-03-01T05:52:06;12.17;;;6.93;;
5995;SDS011;3026;53.612;7.278;2023-03-01T05:54:33;10.07;;;6.30;;
5995;SDS011;3026;53.612;7.278;2023-03-01T05:57:00;12.00;;;6.53;;
5995;SDS011;3026;53.612;7.278;2023-03-01T05:59:27;11.47;;;6.50;;
5995;SDS011;3026;53.612;7.278;2023-03-01T06:01:53;11.37;;;7.03;;
5995;SDS011;3026;53.612;7.278;2023-03-01T06:04:20;13.23;;;7.20;;
5995;SDS011;3026;53.612;7.278;2023-03-01T06:06:49;11.77;;;6.50;;
5995;SDS011;3026;53.612;7.278;2023-03-01T06:09:16;12.03;;;7.13;;
5995;SDS011;3026;53.612;7.278;2023-03-01T06:11:43;10.53;;;6.80;;
5995;SDS011;3026;53.612;7.278;2023-03-01T06:14:10;11.37;;;6.57;;
5995;SDS011;3026;53.612;7.278;2023-03-01T06:16:39;12.83;;;7.47;;
5995;SDS011;3026;53.612;7.278;2023-03-01T06:19:06;12.80;;;6.50;;
5995;SDS011;3026;53.612;7.278;2023-03-01T06:21:33;13.13;;;6.93;;
5995;SDS011;3026;53.612;7.278;2023-03-01T06:24:01;12.70;;;7.43;;
5995;SDS011;3026;53.612;7.278;2023-03-01T06:26:28;12.47;;;6.70;;
5995;SDS011;3026;53.612;7.278;2023-03-01T06:28:55;13.33;;;7.83;;
5995;SDS011;3026;53.612;7.278;2023-03-01T06:31:22;16.30;;;7.80;;
5995;SDS011;3026;53.612;7.278;2023-03-01T06:33:49;15.20;;;8.23;;
5995;SDS011;3026;53.612;7.278;2023-03-01T06:36:16;14.73;;;7.27;;
5995;SDS011;3026;53.612;7.278;2023-03-01T06:38:46;14.83;;;8.03;;
5995;SDS011;3026;53.612;7.278;2023-03-01T06:41:14;12.00;;;7.07;;
5995;SDS011;3026;53.612;7.278;2023-03-01T06:43:41;16.47;;;9.70;;
5995;SDS011;3026;53.612;7.278;2023-03-01T06:46:08;14.87;;;7.77;;
5995;SDS011;3026;53.612;7.278;2023-03-01T06:48:35;13.27;;;7.53;;
5995;SDS011;3026;53.612;7.278;2023-03-01T06:51:02;13.90;;;7.93;;
5995;SDS011;3026;53.612;7.278;2023-03-01T06:53:29;14.07;;;7.90;;
5995;SDS011;3026;53.612;7.278;2023-03-01T06:55:56;13.97;;;8.23;;
5995;SDS011;3026;53.612;7.278;2023-03-01T06:58:26;11.80;;;6.93;;
5995;SDS011;3026;53.612;7.278;2023-03-01T07:00:53;14.27;;;7.50;;
5995;SDS011;3026;53.612;7.278;2023-03-01T07:03:20;17.40;;;8.47;;
5995;SDS011;3026;53.612;7.278;2023-03-01T07:05:48;15.27;;;7.87;;
5995;SDS011;3026;53.612;7.278;2023-03-01T07:08:16;16.90;;;8.70;;
5995;SDS011;3026;53.612;7.278;2023-03-01T07:10:43;20.20;;;10.20;;
5995;SDS011;3026;53.612;7.278;2023-03-01T07:13:10;18.60;;;9.07;;
5995;SDS011;3026;53.612;7.278;2023-03-01T07:15:39;21.00;;;9.90;;
5995;SDS011;3026;53.612;7.278;2023-03-01T07:18:06;33.03;;;10.90;;
5995;SDS011;3026;53.612;7.278;2023-03-01T07:20:34;22.83;;;9.77;;
5995;SDS011;3026;53.612;7.278;2023-03-01T07:23:01;24.33;;;11.30;;
5995;SDS011;3026;53.612;7.278;2023-03-01T07:25:28;23.40;;;10.60;;
5995;SDS011;3026;53.612;7.278;2023-03-01T07:27:55;21.77;;;10.63;;
5995;SDS011;3026;53.612;7.278;2023-03-01T07:30:22;21.93;;;12.30;;
5995;SDS011;3026;53.612;7.278;2023-03-01T07:32:52;18.33;;;10.87;;
5995;SDS011;3026;53.612;7.278;2023-03-01T07:35:19;20.17;;;11.43;;
5995;SDS011;3026;53.612;7.278;2023-03-01T07:37:46;24.13;;;12.30;;
5995;SDS011;3026;53.612;7.278;2023-03-01T07:40:13;24.97;;;12.90;;
5995;SDS011;3026;53.612;7.278;2023-03-01T07:42:40;26.30;;;11.93;;
5995;SDS011;3026;53.612;7.278;2023-03-01T07:45:07;21.73;;;11.50;;
5995;SDS011;3026;53.612;7.278;2023-03-01T07:47:34;24.27;;;11.17;;
5995;SDS011;3026;53.612;7.278;2023-03-01T07:50:03;26.47;;;11.10;;
5995;SDS011;3026;53.612;7.278;2023-03-01T07:52:31;30.60;;;13.30;;
5995;SDS011;3026;53.612;7.278;2023-03-01T07:54:57;24.40;;;12.30;;
5995;SDS011;3026;53.612;7.278;2023-03-01T07:57:24;21.67;;;11.80;;
5995;SDS011;3026;53.612;7.278;2023-03-01T07:59:51;28.53;;;12.23;;
5995;SDS011;3026;53.612;7.278;2023-03-01T08:02:18;24.00;;;12.30;;
5995;SDS011;3026;53.612;7.278;2023-03-01T08:04:45;32.20;;;13.87;;
5995;SDS011;3026;53.612;7.278;2023-03-01T08:07:13;50.73;;;15.90;;
5995;SDS011;3026;53.612;7.278;2023-03-01T08:09:40;33.57;;;14.47;;
5995;SDS011;3026;53.612;7.278;2023-03-01T08:12:07;27.03;;;13.87;;
5995;SDS011;3026;53.612;7.278;2023-03-01T08:14:34;27.73;;;13.87;;
5995;SDS011;3026;53.612;7.278;2023-03-01T08:17:01;30.47;;;13.57;;
5995;SDS011;3026;53.612;7.278;2023-03-01T08:19:30;29.67;;;14.27;;
5995;SDS011;3026;53.612;7.278;2023-03-01T08:21:58;27.33;;;15.13;;
5995;SDS011;3026;53.612;7.278;2023-03-01T08:24:26;29.77;;;13.80;;
5995;SDS011;3026;53.612;7.278;2023-03-01T08:26:54;31.27;;;14.33;;
5995;SDS011;3026;53.612;7.278;2023-03-01T08:29:21;30.57;;;13.40;;
5995;SDS011;3026;53.612;7.278;2023-03-01T08:31:49;28.10;;;13.10;;
5995;SDS011;3026;53.612;7.278;2023-03-01T08:34:17;26.10;;;14.10;;
5995;SDS011;3026;53.612;7.278;2023-03-01T08:36:45;27.03;;;13.20;;
5995;SDS011;3026;53.612;7.278;2023-03-01T08:39:13;23.80;;;14.57;;
5995;SDS011;3026;53.612;7.278;2023-03-01T08:41:43;33.73;;;16.70;;
5995;SDS011;3026;53.612;7.278;2023-03-01T08:44:10;30.10;;;14.93;;
5995;SDS011;3026;53.612;7.278;2023-03-01T08:46:39;23.07;;;13.53;;
5995;SDS011;3026;53.612;7.278;2023-03-01T08:49:07;27.43;;;13.50;;
5995;SDS011;3026;53.612;7.278;2023-03-01T08:51:37;29.13;;;13.67;;
5995;SDS011;3026;53.612;7.278;2023-03-01T08:54:05;23.17;;;12.47;;
5995;SDS011;3026;53.612;7.278;2023-03-01T08:56:33;20.83;;;12.60;;
5995;SDS011;3026;53.612;7.278;2023-03-01T08:59:02;20.50;;;12.67;;
5995;SDS011;3026;53.612;7.278;2023-03-01T09:01:29;28.83;;;12.07;;
5995;SDS011;3026;53.612;7.278;2023-03-01T09:03:56;19.80;;;12.87;;
5995;SDS011;3026;53.612;7.278;2023-03-01T09:06:23;24.60;;;14.10;;
5995;SDS011;3026;53.612;7.278;2023-03-01T09:08:50;19.60;;;11.07;;
5995;SDS011;3026;53.612;7.278;2023-03-01T09:11:18;22.70;;;12.90;;
5995;SDS011;3026;53.612;7.278;2023-03-01T09:13:47;19.20;;;11.40;;
5995;SDS011;3026;53.612;7.278;2023-03-01T09:16:16;16.10;;;10.00;;
5995;SDS011;3026;53.612;7.278;2023-03-01T09:18:44;16.50;;;10.90;;
5995;SDS011;3026;53.612;7.278;2023-03-01T09:21:12;20.77;;;13.00;;
5995;SDS011;3026;53.612;7.278;2023-03-01T09:23:41;19.80;;;12.80;;
5995;SDS011;3026;53.612;7.278;2023-03-01T09:26:10;17.83;;;10.47;;
5995;SDS011;3026;53.612;7.278;2023-03-01T09:28:42;16.07;;;10.17;;
5995;SDS011;3026;53.612;7.278;2023-03-01T09:31:10;16.80;;;11.43;;
5995;SDS011;3026;53.612;7.278;2023-03-01T09:33:39;13.83;;;9.90;;
5995;SDS011;3026;53.612;7.278;2023-03-01T09:36:07;15.77;;;9.90;;
5995;SDS011;3026;53.612;7.278;2023-03-01T09:38:37;12.80;;;8.60;;
5995;SDS011;3026;53.612;7.278;2023-03-01T09:41:08;9.03;;;7.03;;
5995;SDS011;3026;53.612;7.278;2023-03-01T09:43:39;10.43;;;7.50;;
5995;SDS011;3026;53.612;7.278;2023-03-01T09:46:13;10.80;;;7.30;;
5995;SDS011;3026;53.612;7.278;2023-03-01T09:48:44;10.17;;;6.07;;
5995;SDS011;3026;53.612;7.278;2023-03-01T09:51:19;10.50;;;6.67;;
5995;SDS011;3026;53.612;7.278;2023-03-01T09:53:51;9.87;;;6.63;;
5995;SDS011;3026;53.612;7.278;2023-03-01T09:56:20;9.40;;;6.43;;
5995;SDS011;3026;53.612;7.278;2023-03-01T09:58:54;8.60;;;6.47;;
5995;SDS011;3026;53.612;7.278;2023-03-01T10:01:29;10.30;;;6.63;;
5995;SDS011;3026;53.612;7.278;2023-03-01T10:07:07;11.13;;;7.93;;
5995;SDS011;3026;53.612;7.278;2023-03-01T10:09:47;12.87;;;8.63;;
5995;SDS011;3026;53.612;7.278;2023-03-01T10:12:15;13.90;;;9.17;;
5995;SDS011;3026;53.612;7.278;2023-03-01T10:14:48;11.73;;;8.20;;
5995;SDS011;3026;53.612;7.278;2023-03-01T10:17:24;14.87;;;7.73;;
5995;SDS011;3026;53.612;7.278;2023-03-01T10:19:58;11.80;;;8.77;;
5995;SDS011;3026;53.612;7.278;2023-03-01T10:22:41;11.67;;;9.10;;
5995;SDS011;3026;53.612;7.278;2023-03-01T10:25:13;9.80;;;7.73;;
5995;SDS011;3026;53.612;7.278;2023-03-01T10:27:43;14.47;;;9.67;;
5995;SDS011;3026;53.612;7.278;2023-03-01T10:30:19;15.07;;;8.93;;
5995;SDS011;3026;53.612;7.278;2023-03-01T10:32:49;14.73;;;8.97;;
5995;SDS011;3026;53.612;7.278;2023-03-01T10:35:21;11.60;;;9.13;;
5995;SDS011;3026;53.612;7.278;2023-03-01T10:38:02;12.73;;;9.40;;
5995;SDS011;3026;53.612;7.278;2023-03-01T10:40:30;12.77;;;9.17;;
5995;SDS011;3026;53.612;7.278;2023-03-01T10:42:58;11.97;;;9.40;;
5995;SDS011;3026;53.612;7.278;2023-03-01T10:45:30;9.57;;;7.80;;
5995;SDS011;3026;53.612;7.278;2023-03-01T10:48:03;11.57;;;8.00;;
5995;SDS011;3026;53.612;7.278;2023-03-01T10:50:39;12.27;;;7.67;;
5995;SDS011;3026;53.612;7.278;2023-03-01T10:53:16;10.43;;;7.60;;
5995;SDS011;3026;53.612;7.278;2023-03-01T10:55:55;11.73;;;8.93;;
5995;SDS011;3026;53.612;7.278;2023-03-01T10:58:24;15.70;;;8.40;;
5995;SDS011;3026;53.612;7.278;2023-03-01T11:00:52;13.47;;;9.03;;
5995;SDS011;3026;53.612;7.278;2023-03-01T11:03:21;11.73;;;9.60;;
5995;SDS011;3026;53.612;7.278;2023-03-01T11:05:56;14.07;;;9.93;;
5995;SDS011;3026;53.612;7.278;2023-03-01T11:08:33;11.37;;;8.03;;
5995;SDS011;3026;53.612;7.278;2023-03-01T11:11:03;11.03;;;9.27;;
5995;SDS011;3026;53.612;7.278;2023-03-01T11:13:31;11.53;;;8.90;;
5995;SDS011;3026;53.612;7.278;2023-03-01T11:15:59;13.87;;;8.97;;
5995;SDS011;3026;53.612;7.278;2023-03-01T11:18:27;12.00;;;8.83;;
5995;SDS011;3026;53.612;7.278;2023-03-01T11:20:58;12.97;;;9.50;;
5995;SDS011;3026;53.612;7.278;2023-03-01T11:23:28;11.53;;;9.23;;
5995;SDS011;3026;53.612;7.278;2023-03-01T11:25:58;13.00;;;9.07;;
5995;SDS011;3026;53.612;7.278;2023-03-01T11:28:29;11.67;;;8.97;;
5995;SDS011;3026;53.612;7.278;2023-03-01T11:30:57;14.00;;;9.23;;
5995;SDS011;3026;53.612;7.278;2023-03-01T11:33:32;12.23;;;9.10;;
5995;SDS011;3026;53.612;7.278;2023-03-01T11:36:06;12.37;;;9.57;;
5995;SDS011;3026;53.612;7.278;2023-03-01T11:38:42;12.30;;;8.50;;
5995;SDS011;3026;53.612;7.278;2023-03-01T11:41:11;11.07;;;8.33;;
5995;SDS011;3026;53.612;7.278;2023-03-01T11:43:44;14.63;;;8.80;;
5995;SDS011;3026;53.612;7.278;2023-03-01T11:46:29;10.13;;;7.83;;
5995;SDS011;3026;53.612;7.278;2023-03-01T11:49:25;10.83;;;8.70;;
5995;SDS011;3026;53.612;7.278;2023-03-01T11:52:16;10.73;;;8.67;;
5995;SDS011;3026;53.612;7.278;2023-03-01T11:54:56;9.33;;;7.77;;
5995;SDS011;3026;53.612;7.278;2023-03-01T11:57:37;9.93;;;7.67;;
5995;SDS011;3026;53.612;7.278;2023-03-01T12:00:25;8.17;;;7.13;;
5995;SDS011;3026;53.612;7.278;2023-03-01T12:03:25;11.53;;;9.13;;
5995;SDS011;3026;53.612;7.278;2023-03-01T12:06:11;9.40;;;6.67;;
5995;SDS011;3026;53.612;7.278;2023-03-01T12:08:51;11.17;;;7.73;;
5995;SDS011;3026;53.612;7.278;2023-03-01T12:11:31;12.90;;;8.43;;
5995;SDS011;3026;53.612;7.278;2023-03-01T12:14:28;10.10;;;8.03;;
5995;SDS011;3026;53.612;7.278;2023-03-01T12:20:21;9.03;;;7.20;;
5995;SDS011;3026;53.612;7.278;2023-03-01T12:23:02;10.07;;;7.73;;
5995;SDS011;3026;53.612;7.278;2023-03-01T12:25:50;9.37;;;7.50;;
5995;SDS011;3026;53.612;7.278;2023-03-01T12:28:36;9.23;;;7.93;;
5995;SDS011;3026;53.612;7.278;2023-03-01T12:31:16;8.70;;;7.13;;
5995;SDS011;3026;53.612;7.278;2023-03-01T12:34:03;8.27;;;6.90;;
5995;SDS011;3026;53.612;7.278;2023-03-01T12:36:44;8.60;;;6.83;;
5995;SDS011;3026;53.612;7.278;2023-03-01T12:39:24;10.67;;;7.37;;
5995;SDS011;3026;53.612;7.278;2023-03-01T12:42:09;9.83;;;7.23;;
5995;SDS011;3026;53.612;7.278;2023-03-01T12:44:51;11.77;;;7.80;;
5995;SDS011;3026;53.612;7.278;2023-03-01T12:47:36;9.53;;;8.30;;
5995;SDS011;3026;53.612;7.278;2023-03-01T12:50:25;10.13;;;8.00;;
5995;SDS011;3026;53.612;7.278;2023-03-01T12:53:03;10.23;;;8.03;;
5995;SDS011;3026;53.612;7.278;2023-03-01T12:55:31;10.30;;;7.33;;
5995;SDS011;3026;53.612;7.278;2023-03-01T12:58:02;8.53;;;7.23;;
5995;SDS011;3026;53.612;7.278;2023-03-01T13:00:38;8.33;;;7.20;;
5995;SDS011;3026;53.612;7.278;2023-03-01T13:03:25;8.30;;;6.80;;
5995;SDS011;3026;53.612;7.278;2023-03-01T13:06:04;11.73;;;7.63;;
5995;SDS011;3026;53.612;7.278;2023-03-01T13:08:36;8.37;;;7.20;;
5995;SDS011;3026;53.612;7.278;2023-03-01T13:11:14;11.50;;;7.37;;
5995;SDS011;3026;53.612;7.278;2023-03-01T13:13:45;11.03;;;8.47;;
5995;SDS011;3026;53.612;7.278;2023-03-01T13:16:21;15.87;;;8.43;;
5995;SDS011;3026;53.612;7.278;2023-03-01T13:19:06;11.47;;;8.10;;
5995;SDS011;3026;53.612;7.278;2023-03-01T13:21:38;10.83;;;8.93;;
5995;SDS011;3026;53.612;7.278;2023-03-01T13:27:10;9.60;;;7.57;;
5995;SDS011;3026;53.612;7.278;2023-03-01T13:29:50;9.43;;;7.77;;
5995;SDS011;3026;53.612;7.278;2023-03-01T13:32:21;9.90;;;7.73;;
5995;SDS011;3026;53.612;7.278;2023-03-01T13:34:52;11.63;;;7.33;;
5995;SDS011;3026;53.612;7.278;2023-03-01T13:37:24;11.20;;;8.13;;
5995;SDS011;3026;53.612;7.278;2023-03-01T13:39:54;9.80;;;7.83;;
5995;SDS011;3026;53.612;7.278;2023-03-01T13:42:29;11.77;;;7.97;;
5995;SDS011;3026;53.612;7.278;2023-03-01T13:45:00;10.63;;;8.17;;
5995;SDS011;3026;53.612;7.278;2023-03-01T13:47:27;9.53;;;8.50;;
5995;SDS011;3026;53.612;7.278;2023-03-01T13:49:55;8.80;;;7.90;;
5995;SDS011;3026;53.612;7.278;2023-03-01T13:52:30;9.43;;;7.80;;
5995;SDS011;3026;53.612;7.278;2023-03-01T13:55:05;9.80;;;7.50;;
5995;SDS011;3026;53.612;7.278;2023-03-01T13:57:43;10.53;;;7.63;;
5995;SDS011;3026;53.612;7.278;2023-03-01T14:00:26;13.83;;;7.87;;
5995;SDS011;3026;53.612;7.278;2023-03-01T14:03:05;10.93;;;7.60;;
5995;SDS011;3026;53.612;7.278;2023-03-01T14:05:38;10.50;;;7.03;;
5995;SDS011;3026;53.612;7.278;2023-03-01T14:08:17;9.43;;;7.97;;
5995;SDS011;3026;53.612;7.278;2023-03-01T14:10:50;10.60;;;7.27;;
5995;SDS011;3026;53.612;7.278;2023-03-01T14:13:53;8.93;;;7.07;;
5995;SDS011;3026;53.612;7.278;2023-03-01T14:16:35;9.60;;;6.90;;
5995;SDS011;3026;53.612;7.278;2023-03-01T14:19:15;14.13;;;7.50;;
5995;SDS011;3026;53.612;7.278;2023-03-01T14:21:46;11.47;;;7.70;;
5995;SDS011;3026;53.612;7.278;2023-03-01T14:24:17;10.43;;;6.20;;
5995;SDS011;3026;53.612;7.278;2023-03-01T14:26:46;8.33;;;5.87;;
5995;SDS011;3026;53.612;7.278;2023-03-01T14:29:23;8.10;;;7.20;;
5995;SDS011;3026;53.612;7.278;2023-03-01T14:31:52;8.97;;;6.63;;
5995;SDS011;3026;53.612;7.278;2023-03-01T14:34:20;8.60;;;7.33;;
5995;SDS011;3026;53.612;7.278;2023-03-01T14:36:48;8.93;;;7.00;;
5995;SDS011;3026;53.612;7.278;2023-03-01T14:39:19;9.33;;;5.70;;
5995;SDS011;3026;53.612;7.278;2023-03-01T14:41:51;8.33;;;5.97;;
5995;SDS011;3026;53.612;7.278;2023-03-01T14:44:19;8.80;;;5.40;;
5995;SDS011;3026;53.612;7.278;2023-03-01T14:46:53;6.03;;;5.17;;
5995;SDS011;3026;53.612;7.278;2023-03-01T14:49:23;7.57;;;5.23;;
5995;SDS011;3026;53.612;7.278;2023-03-01T14:51:52;5.73;;;4.80;;
5995;SDS011;3026;53.612;7.278;2023-03-01T14:54:23;6.03;;;5.37;;
5995;SDS011;3026;53.612;7.278;2023-03-01T14:56:52;6.70;;;5.13;;
5995;SDS011;3026;53.612;7.278;2023-03-01T14:59:21;6.77;;;5.87;;
5995;SDS011;3026;53.612;7.278;2023-03-01T15:01:49;7.63;;;5.53;;
5995;SDS011;3026;53.612;7.278;2023-03-01T15:04:19;7.30;;;5.40;;
5995;SDS011;3026;53.612;7.278;2023-03-01T15:06:47;6.33;;;5.70;;
5995;SDS011;3026;53.612;7.278;2023-03-01T15:09:17;6.60;;;5.93;;
5995;SDS011;3026;53.612;7.278;2023-03-01T15:11:45;7.37;;;5.53;;
5995;SDS011;3026;53.612;7.278;2023-03-01T15:14:28;8.93;;;6.00;;
5995;SDS011;3026;53.612;7.278;2023-03-01T15:17:13;9.83;;;5.63;;
5995;SDS011;3026;53.612;7.278;2023-03-01T15:19:47;10.10;;;6.00;;
5995;SDS011;3026;53.612;7.278;2023-03-01T15:22:14;8.10;;;6.03;;
5995;SDS011;3026;53.612;7.278;2023-03-01T15:24:46;9.73;;;6.73;;
5995;SDS011;3026;53.612;7.278;2023-03-01T15:27:14;8.17;;;5.97;;
5995;SDS011;3026;53.612;7.278;2023-03-01T15:29:47;6.63;;;5.17;;
5995;SDS011;3026;53.612;7.278;2023-03-01T15:32:25;7.23;;;6.53;;